Time;durP1;ratioP1;P1;durP2;ratioP2;P2;SDS_P1;SDS_P2;PMS_P1;PMS_P2;Temp;Humidity;BMP_temperature;BMP_pressure;BME280_temperature;BME280_humidity;BME280_pressure;Samples;Min_cycle;Max_cycle;Signal;HPM_P1;HPM_P2
2023/01/01 00:02:13;;;;;;;6.43;3.03;;;16.30;99.90;;;;;;5022419;28;20254;-85
2023/01/01 00:04:39;;;;;;;6.73;2.70;;;16.20;99.90;;;;;;5040827;28;20673;-85
2023/01/01 00:07:07;;;;;;;7.93;2.90;;;16.10;1.00;;;;;;5043087;28;20175;-86
2023/01/01 00:12:32;;;;;;;4.83;2.30;;;16.10;1.00;;;;;;5054838;28;20192;-87
2023/01/01 00:15:01;;;;;;;5.37;2.50;;;16.00;1.00;;;;;;5047560;28;20276;-86
2023/01/01 00:17:38;;;;;;;6.83;2.37;;;16.00;1.00;;;;;;5026498;28;20622;-87
2023/01/01 00:20:04;;;;;;;5.47;2.47;;;16.00;1.00;;;;;;5009088;28;20204;-87
2023/01/01 00:22:30;;;;;;;6.60;2.50;;;16.00;1.00;;;;;;5043199;28;20549;-87
2023/01/01 00:24:59;;;;;;;8.73;3.23;;;16.00;1.00;;;;;;5024738;28;20305;-87
2023/01/01 00:27:26;;;;;;;5.07;2.43;;;15.90;1.00;;;;;;5025018;28;20552;-87
2023/01/01 00:29:53;;;;;;;10.23;2.90;;;15.90;1.00;;;;;;5023225;28;20178;-88
2023/01/01 00:32:19;;;;;;;8.77;2.67;;;15.90;1.00;;;;;;5040699;28;20181;-86
2023/01/01 00:34:45;;;;;;;7.77;2.40;;;15.80;1.00;;;;;;5020725;28;20595;-87
2023/01/01 00:37:10;;;;;;;7.60;2.80;;;15.80;1.00;;;;;;5023721;28;20182;-87
2023/01/01 00:39:39;;;;;;;10.47;2.73;;;15.80;1.00;;;;;;5025263;28;20685;-87
2023/01/01 00:42:04;;;;;;;6.20;2.53;;;15.60;1.00;;;;;;5024219;28;20563;-86
2023/01/01 00:44:31;;;;;;;9.10;2.47;;;15.80;1.00;;;;;;5022064;28;20320;-86
2023/01/01 00:46:57;;;;;;;5.40;2.30;;;15.80;1.00;;;;;;5025458;28;20189;-86
2023/01/01 00:49:23;;;;;;;8.07;2.40;;;15.70;1.00;;;;;;5042932;28;20225;-86
2023/01/01 00:51:49;;;;;;;5.50;2.40;;;15.80;1.00;;;;;;5028190;28;20526;-85
2023/01/01 00:54:18;;;;;;;5.43;2.43;;;15.60;1.00;;;;;;5026727;28;20190;-87
2023/01/01 00:56:45;;;;;;;8.63;2.50;;;15.70;1.00;;;;;;5022696;28;20253;-86
2023/01/01 00:59:10;;;;;;;6.70;2.90;;;15.60;1.00;;;;;;5023982;28;20212;-85
2023/01/01 01:01:37;;;;;;;5.40;2.30;;;15.60;1.00;;;;;;5038650;28;20189;-86
2023/01/01 01:04:03;;;;;;;12.50;2.60;;;15.70;1.00;;;;;;5021481;28;20211;-87
2023/01/01 01:06:29;;;;;;;8.00;2.87;;;15.60;1.00;;;;;;5021798;28;20208;-87
2023/01/01 01:08:56;;;;;;;8.60;2.50;;;15.70;1.00;;;;;;5040349;28;20181;-86
2023/01/01 01:11:24;;;;;;;9.20;2.10;;;15.60;1.00;;;;;;5040864;28;20174;-85
2023/01/01 01:13:53;;;;;;;6.40;2.73;;;15.60;1.00;;;;;;5045392;28;20177;-86
2023/01/01 01:16:32;;;;;;;6.37;1.93;;;15.70;1.00;;;;;;5024848;28;20602;-86
2023/01/01 01:19:02;;;;;;;6.97;2.20;;;15.60;1.00;;;;;;5023165;28;20231;-86
2023/01/01 01:21:31;;;;;;;5.37;2.23;;;15.60;1.00;;;;;;5022789;28;20217;-85
2023/01/01 01:23:58;;;;;;;5.20;2.27;;;15.70;1.00;;;;;;5024768;28;20300;-86
2023/01/01 01:26:28;;;;;;;9.27;2.00;;;15.60;1.00;;;;;;5024759;28;20194;-86
2023/01/01 01:28:54;;;;;;;4.77;2.33;;;15.60;1.00;;;;;;5024711;28;20228;-85
2023/01/01 01:31:23;;;;;;;6.60;2.40;;;15.80;1.00;;;;;;5023225;28;20180;-85
2023/01/01 01:33:49;;;;;;;7.07;2.40;;;15.60;1.00;;;;;;5021942;28;20185;-86
2023/01/01 01:36:37;;;;;;;5.97;2.10;;;15.80;1.00;;;;;;5032507;28;20192;-86
2023/01/01 01:39:04;;;;;;;7.60;2.10;;;15.60;1.00;;;;;;5041650;28;20195;-86
2023/01/01 01:41:30;;;;;;;6.60;2.30;;;15.70;1.00;;;;;;5048439;28;20180;-84
2023/01/01 01:44:26;;;;;;;6.60;2.40;;;15.90;1.00;;;;;;5038443;28;20229;-85
2023/01/01 01:46:56;;;;;;;6.07;2.60;;;15.90;1.00;;;;;;5035086;28;20162;-86
2023/01/01 01:49:32;;;;;;;9.60;2.37;;;15.80;1.00;;;;;;5032713;28;20199;-85
2023/01/01 01:52:00;;;;;;;7.50;2.43;;;15.80;1.00;;;;;;5029863;28;20175;-83
2023/01/01 01:54:29;;;;;;;8.77;2.43;;;15.80;1.00;;;;;;5038539;28;20185;-87
2023/01/01 01:57:08;;;;;;;6.83;2.20;;;15.80;1.00;;;;;;5029246;28;20648;-85
2023/01/01 01:59:41;;;;;;;5.47;2.00;;;15.90;1.00;;;;;;5031779;28;20208;-85
2023/01/01 02:02:33;;;;;;;8.33;2.40;;;16.00;1.00;;;;;;5047848;28;20181;-85
2023/01/01 02:05:00;;;;;;;7.33;2.63;;;16.00;1.00;;;;;;5027969;28;20214;-86
2023/01/01 02:07:33;;;;;;;5.97;2.37;;;15.90;1.00;;;;;;5022272;28;20173;-86
2023/01/01 02:10:00;;;;;;;6.33;2.33;;;16.00;1.00;;;;;;5020677;28;20277;-85
2023/01/01 02:12:26;;;;;;;5.43;2.10;;;15.90;1.00;;;;;;5022860;28;20265;-87
2023/01/01 02:14:54;;;;;;;7.10;2.40;;;16.00;1.00;;;;;;5025233;28;20178;-85
2023/01/01 02:17:39;;;;;;;7.70;2.03;;;15.90;1.00;;;;;;5026109;28;20208;-84
2023/01/01 02:20:43;;;;;;;6.20;2.17;;;16.00;1.00;;;;;;5030481;28;20200;-86
2023/01/01 02:23:24;;;;;;;7.23;2.13;;;15.80;1.00;;;;;;4973763;28;20186;-85
2023/01/01 02:26:49;;;;;;;6.93;2.10;;;15.70;1.00;;;;;;5048681;28;20519;-85
2023/01/01 02:29:39;;;;;;;7.47;2.30;;;15.70;1.00;;;;;;4925275;29;20730;-87
2023/01/01 02:32:14;;;;;;;8.37;2.30;;;15.70;1.00;;;;;;5026181;28;20194;-87
2023/01/01 02:37:53;;;;;;;4.83;2.00;;;15.60;1.00;;;;;;5041130;28;20207;-86
2023/01/01 02:41:56;;;;;;;6.97;2.23;;;15.50;1.00;;;;;;5141489;27;20546;-86
2023/01/01 02:44:27;;;;;;;6.00;2.10;;;15.50;1.00;;;;;;5081535;28;20196;-86
2023/01/01 02:46:55;;;;;;;5.27;2.10;;;15.50;1.00;;;;;;5098861;28;20214;-85
2023/01/01 02:49:22;;;;;;;5.83;1.90;;;15.50;1.00;;;;;;5094796;28;20627;-86
2023/01/01 02:52:03;;;;;;;5.70;2.40;;;15.50;1.00;;;;;;5095652;28;20258;-86
2023/01/01 02:54:48;;;;;;;5.30;2.13;;;15.40;1.00;;;;;;5099195;28;20183;-85
2023/01/01 02:57:36;;;;;;;7.00;2.20;;;15.40;1.00;;;;;;5106996;28;20170;-85
2023/01/01 03:00:23;;;;;;;6.53;2.17;;;15.40;1.00;;;;;;5112548;28;20667;-85
2023/01/01 03:02:59;;;;;;;6.73;2.30;;;15.30;1.00;;;;;;5100786;28;20179;-86
2023/01/01 03:06:21;;;;;;;5.73;1.90;;;15.30;1.00;;;;;;5108889;28;20191;-84
2023/01/01 03:09:10;;;;;;;6.67;2.47;;;15.30;1.00;;;;;;5110105;28;20160;-84
2023/01/01 03:11:56;;;;;;;7.50;2.30;;;15.20;1.00;;;;;;5114804;28;20176;-85
2023/01/01 03:14:37;;;;;;;6.90;2.20;;;15.20;1.00;;;;;;5113842;28;20179;-84
2023/01/01 03:17:15;;;;;;;6.00;2.03;;;15.20;1.00;;;;;;5097551;28;20172;-86
2023/01/01 03:19:55;;;;;;;8.33;2.13;;;15.20;1.00;;;;;;5095403;28;20195;-86
2023/01/01 03:22:26;;;;;;;6.13;2.20;;;15.30;1.00;;;;;;5094086;28;20245;-86
2023/01/01 03:25:00;;;;;;;5.67;1.70;;;15.20;1.00;;;;;;5096524;28;20159;-85
2023/01/01 03:27:36;;;;;;;9.23;2.40;;;15.20;1.00;;;;;;5106125;28;20146;-86
2023/01/01 03:30:09;;;;;;;5.23;1.87;;;15.20;1.00;;;;;;5092571;28;20196;-85
2023/01/01 03:32:59;;;;;;;5.60;2.50;;;15.10;1.00;;;;;;5092885;28;20699;-86
2023/01/01 03:35:33;;;;;;;5.93;2.50;;;15.10;1.00;;;;;;5096886;28;20183;-86
2023/01/01 03:38:00;;;;;;;4.93;2.07;;;15.00;1.00;;;;;;5095217;28;20179;-84
2023/01/01 03:40:30;;;;;;;7.27;3.03;;;14.90;1.00;;;;;;5094723;28;20249;-83
2023/01/01 03:43:21;;;;;;;9.43;2.73;;;14.90;1.00;;;;;;5110938;28;20222;-83
2023/01/01 03:45:51;;;;;;;8.53;2.77;;;14.80;1.00;;;;;;5106400;28;20209;-83
2023/01/01 03:48:19;;;;;;;8.07;2.20;;;14.80;1.00;;;;;;5111434;28;20216;-84
2023/01/01 03:50:57;;;;;;;5.70;2.33;;;14.70;1.00;;;;;;5109358;28;20190;-83
2023/01/01 03:53:40;;;;;;;5.30;2.03;;;14.50;1.00;;;;;;5092957;28;20186;-86
2023/01/01 03:56:10;;;;;;;6.70;2.43;;;14.50;1.00;;;;;;5088655;28;20214;-85
2023/01/01 03:58:45;;;;;;;4.87;2.37;;;14.50;1.00;;;;;;5079357;28;20677;-85
2023/01/01 04:01:37;;;;;;;5.67;2.33;;;14.50;1.00;;;;;;5082502;28;20636;-85
2023/01/01 04:04:04;;;;;;;3.80;2.00;;;14.50;1.00;;;;;;5078828;28;20168;-86
2023/01/01 04:06:32;;;;;;;5.40;2.23;;;14.50;1.00;;;;;;5062062;28;20204;-84
2023/01/01 04:08:58;;;;;;;5.27;2.40;;;14.50;1.00;;;;;;5079101;28;20193;-84
2023/01/01 04:14:13;;;;;;;8.50;2.70;;;14.60;1.00;;;;;;5080009;28;20176;-84
2023/01/01 04:16:39;;;;;;;6.03;2.30;;;14.50;1.00;;;;;;5096868;28;20177;-84
2023/01/01 04:19:07;;;;;;;5.60;2.47;;;14.50;1.00;;;;;;5098544;28;20186;-86
2023/01/01 04:21:35;;;;;;;6.17;2.50;;;14.60;1.00;;;;;;5094770;28;20517;-86
2023/01/01 04:24:01;;;;;;;7.80;2.70;;;14.50;1.00;;;;;;5086000;28;20176;-86
2023/01/01 04:26:27;;;;;;;4.57;1.80;;;14.60;1.00;;;;;;5079601;28;20181;-85
2023/01/01 04:28:55;;;;;;;6.37;2.27;;;14.60;1.00;;;;;;5081023;28;20175;-86
2023/01/01 04:31:23;;;;;;;7.20;2.20;;;14.50;1.00;;;;;;5080487;28;20179;-86
2023/01/01 04:33:52;;;;;;;5.27;2.03;;;14.50;1.00;;;;;;5079223;28;20310;-86
2023/01/01 04:36:19;;;;;;;7.73;2.67;;;14.50;1.00;;;;;;5079455;28;20198;-83
2023/01/01 04:38:44;;;;;;;8.20;2.67;;;14.50;1.00;;;;;;5078746;28;20175;-85
2023/01/01 04:41:10;;;;;;;5.87;2.27;;;14.50;1.00;;;;;;5080229;28;20292;-84
2023/01/01 04:43:37;;;;;;;8.10;2.03;;;14.50;1.00;;;;;;5065207;28;20199;-84
2023/01/01 04:46:04;;;;;;;6.50;2.47;;;14.50;1.00;;;;;;5081724;28;20235;-85
2023/01/01 04:48:30;;;;;;;6.10;2.37;;;14.60;1.00;;;;;;5089994;28;20193;-84
2023/01/01 04:50:59;;;;;;;4.80;2.20;;;14.50;1.00;;;;;;5083440;28;20187;-85
2023/01/01 04:53:25;;;;;;;6.87;2.10;;;14.50;1.00;;;;;;5077576;28;20646;-86
2023/01/01 04:55:51;;;;;;;6.50;2.33;;;14.50;1.00;;;;;;5075909;28;20179;-85
2023/01/01 04:58:17;;;;;;;5.37;2.30;;;14.40;1.00;;;;;;5078025;28;20178;-86
2023/01/01 05:00:46;;;;;;;6.17;2.50;;;14.50;1.00;;;;;;5081680;28;20237;-83
2023/01/01 05:03:13;;;;;;;6.03;2.30;;;14.60;1.00;;;;;;5093402;28;20229;-85
2023/01/01 05:05:39;;;;;;;5.43;2.10;;;14.50;1.00;;;;;;5086445;28;20187;-83
2023/01/01 05:08:05;;;;;;;7.27;2.40;;;14.60;1.00;;;;;;5086362;28;20188;-84
2023/01/01 05:10:30;;;;;;;8.10;2.60;;;14.60;1.00;;;;;;5076760;28;20191;-86
2023/01/01 05:12:56;;;;;;;7.87;2.90;;;14.50;1.00;;;;;;5075214;28;20183;-86
2023/01/01 05:15:22;;;;;;;7.03;2.10;;;14.60;1.00;;;;;;5077047;28;20170;-86
2023/01/01 05:17:48;;;;;;;9.73;3.03;;;14.60;1.00;;;;;;5075916;28;20187;-86
2023/01/01 05:20:16;;;;;;;7.83;2.40;;;14.80;1.00;;;;;;5077144;28;20208;-85
2023/01/01 05:22:44;;;;;;;7.07;2.57;;;14.80;1.00;;;;;;5078736;28;20176;-86
2023/01/01 05:25:09;;;;;;;7.37;2.57;;;14.80;1.00;;;;;;5098610;28;20185;-85
2023/01/01 05:27:35;;;;;;;6.47;2.23;;;14.70;1.00;;;;;;5082574;28;20194;-85
2023/01/01 05:30:01;;;;;;;8.10;2.70;;;14.70;1.00;;;;;;5086155;28;20160;-84
2023/01/01 05:32:27;;;;;;;7.00;3.13;;;14.70;1.00;;;;;;5099029;28;20152;-85
2023/01/01 05:34:55;;;;;;;6.53;2.43;;;14.60;1.00;;;;;;5079100;28;20204;-85
2023/01/01 05:37:24;;;;;;;5.03;2.53;;;14.60;1.00;;;;;;5074569;28;20172;-85
2023/01/01 05:39:50;;;;;;;6.53;2.90;;;14.60;1.00;;;;;;5073091;28;20668;-85
2023/01/01 05:42:17;;;;;;;5.80;2.53;;;14.60;2.40;;;;;;5083200;28;20186;-86
2023/01/01 05:44:43;;;;;;;7.23;2.80;;;14.50;3.10;;;;;;5098353;28;20211;-86
2023/01/01 05:47:08;;;;;;;8.57;3.13;;;14.50;2.80;;;;;;5083432;28;20184;-85
2023/01/01 05:49:35;;;;;;;4.90;2.50;;;14.50;5.30;;;;;;5075316;28;20184;-85
2023/01/01 05:52:03;;;;;;;7.43;2.23;;;14.40;5.50;;;;;;5073079;28;20175;-85
2023/01/01 05:54:29;;;;;;;8.97;2.80;;;14.50;6.50;;;;;;5074113;28;20182;-85
2023/01/01 05:56:55;;;;;;;4.33;2.30;;;14.60;2.70;;;;;;5072590;28;20181;-86
2023/01/01 05:59:20;;;;;;;6.30;2.60;;;14.50;4.20;;;;;;5072601;28;20218;-85
2023/01/01 06:01:47;;;;;;;7.07;2.90;;;14.50;5.90;;;;;;5072604;28;20190;-85
2023/01/01 06:04:13;;;;;;;6.13;2.77;;;14.50;5.50;;;;;;5072771;28;20168;-85
2023/01/01 06:06:39;;;;;;;6.90;2.83;;;14.70;4.80;;;;;;5072485;28;20471;-86
2023/01/01 06:09:04;;;;;;;7.60;2.93;;;14.50;7.30;;;;;;5072898;28;20626;-85
2023/01/01 06:11:31;;;;;;;6.57;2.70;;;14.40;10.20;;;;;;5072939;28;20190;-84
2023/01/01 06:13:59;;;;;;;8.37;2.73;;;14.40;11.00;;;;;;5072364;28;20181;-84
2023/01/01 06:16:26;;;;;;;6.13;2.77;;;14.40;12.40;;;;;;5072824;28;20212;-86
2023/01/01 06:18:51;;;;;;;8.80;3.10;;;14.40;13.10;;;;;;5072352;28;20216;-84
2023/01/01 06:21:23;;;;;;;7.90;2.73;;;14.50;12.60;;;;;;5072184;28;20607;-84
2023/01/01 06:23:48;;;;;;;7.23;2.70;;;14.50;13.10;;;;;;5072417;28;20261;-84
2023/01/01 06:26:14;;;;;;;8.33;3.40;;;14.50;13.80;;;;;;5072277;28;20202;-86
2023/01/01 06:28:41;;;;;;;6.13;2.80;;;14.50;13.80;;;;;;5072405;28;20206;-86
2023/01/01 06:31:09;;;;;;;7.23;2.83;;;14.50;14.00;;;;;;5072380;28;20176;-85
2023/01/01 06:33:35;;;;;;;7.43;3.13;;;14.60;15.70;;;;;;5072681;28;20172;-85
2023/01/01 06:36:03;;;;;;;8.10;3.00;;;14.40;18.10;;;;;;5072038;28;20176;-85
2023/01/01 06:38:34;;;;;;;8.80;3.10;;;14.40;19.20;;;;;;5072274;28;20229;-86
2023/01/01 06:41:03;;;;;;;6.87;2.63;;;14.40;19.90;;;;;;5072038;28;20224;-85
2023/01/01 06:43:32;;;;;;;9.93;3.17;;;14.40;19.50;;;;;;5073429;28;20235;-85
2023/01/01 06:46:14;;;;;;;8.70;2.80;;;14.40;20.60;;;;;;5071817;28;20643;-86
2023/01/01 06:48:40;;;;;;;11.43;3.40;;;14.30;23.10;;;;;;5072202;28;20166;-84
2023/01/01 06:51:12;;;;;;;8.57;2.93;;;14.40;23.40;;;;;;5071986;28;20199;-85
2023/01/01 06:53:38;;;;;;;10.97;3.10;;;14.40;23.10;;;;;;5083214;28;20172;-84
2023/01/01 06:56:04;;;;;;;6.87;2.80;;;14.40;24.30;;;;;;5085027;28;20229;-86
2023/01/01 06:58:32;;;;;;;7.63;3.37;;;14.30;26.90;;;;;;5087483;28;20835;-85
2023/01/01 07:01:14;;;;;;;7.37;2.73;;;14.30;28.80;;;;;;5083866;28;20214;-85
2023/01/01 07:03:40;;;;;;;8.43;3.10;;;14.20;29.60;;;;;;5078226;28;20265;-84
2023/01/01 07:06:08;;;;;;;8.60;3.23;;;14.30;31.70;;;;;;5079711;28;20190;-85
2023/01/01 07:08:40;;;;;;;9.43;3.70;;;14.20;32.70;;;;;;5080133;28;20163;-85
2023/01/01 07:11:06;;;;;;;8.90;3.20;;;14.30;31.60;;;;;;5081673;28;20212;-86
2023/01/01 07:13:33;;;;;;;5.90;2.70;;;14.30;32.50;;;;;;5078782;28;20224;-85
2023/01/01 07:15:59;;;;;;;7.83;2.93;;;14.30;31.70;;;;;;5061369;28;20185;-86
2023/01/01 07:18:25;;;;;;;5.80;3.03;;;14.30;35.20;;;;;;5085186;28;20167;-84
2023/01/01 07:20:59;;;;;;;7.87;3.60;;;14.20;38.60;;;;;;5093646;28;20245;-85
2023/01/01 07:23:27;;;;;;;6.93;3.23;;;14.20;39.60;;;;;;5081042;28;20179;-85
2023/01/01 07:25:56;;;;;;;6.73;2.77;;;14.10;40.30;;;;;;5076528;28;20263;-84
2023/01/01 07:28:23;;;;;;;9.57;3.53;;;14.00;42.90;;;;;;5091661;28;20173;-83
2023/01/01 07:30:52;;;;;;;9.07;2.73;;;14.00;45.30;;;;;;5095908;28;20221;-83
2023/01/01 07:33:20;;;;;;;12.20;3.67;;;14.00;46.20;;;;;;5095761;28;20579;-84
2023/01/01 07:35:47;;;;;;;7.67;2.80;;;14.10;44.50;;;;;;5100262;28;20178;-83
2023/01/01 07:38:14;;;;;;;10.87;3.20;;;14.10;44.50;;;;;;5097855;28;20182;-85
2023/01/01 07:40:43;;;;;;;9.63;3.20;;;14.00;46.90;;;;;;5092382;28;20276;-84
2023/01/01 07:43:12;;;;;;;9.33;3.30;;;14.00;47.70;;;;;;5092396;28;20191;-85
2023/01/01 07:45:40;;;;;;;7.27;3.17;;;14.10;48.00;;;;;;5078074;28;20179;-84
2023/01/01 07:48:13;;;;;;;7.40;2.93;;;14.00;47.90;;;;;;5078342;28;20268;-85
2023/01/01 07:50:39;;;;;;;7.57;2.87;;;14.00;48.20;;;;;;5080840;28;20210;-86
2023/01/01 07:53:05;;;;;;;9.80;3.40;;;14.10;47.40;;;;;;5063419;28;20178;-85
2023/01/01 07:55:32;;;;;;;9.40;3.27;;;14.00;46.80;;;;;;5080144;28;20184;-86
2023/01/01 07:57:58;;;;;;;10.03;3.83;;;14.10;46.30;;;;;;5081220;28;20258;-85
2023/01/01 08:00:24;;;;;;;7.97;3.17;;;14.20;47.40;;;;;;5078708;28;20227;-86
2023/01/01 08:02:51;;;;;;;8.43;3.20;;;14.00;46.50;;;;;;5078635;28;20183;-84
2023/01/01 08:05:17;;;;;;;9.60;2.90;;;14.00;48.60;;;;;;5086525;28;20187;-85
2023/01/01 08:07:47;;;;;;;11.50;2.90;;;13.90;49.00;;;;;;5080760;28;20176;-84
2023/01/01 08:10:14;;;;;;;7.20;3.17;;;13.90;50.20;;;;;;5099896;28;20190;-85
2023/01/01 08:12:41;;;;;;;8.23;3.50;;;13.90;50.20;;;;;;5082403;28;20537;-85
2023/01/01 08:15:08;;;;;;;8.37;2.80;;;13.90;49.40;;;;;;5079621;28;20186;-85
2023/01/01 08:17:34;;;;;;;11.73;3.27;;;13.90;49.00;;;;;;5078401;28;20189;-86
2023/01/01 08:20:00;;;;;;;10.17;3.20;;;13.80;49.90;;;;;;5076981;28;20221;-85
2023/01/01 08:22:27;;;;;;;7.43;3.03;;;13.80;51.10;;;;;;5084992;28;20230;-85
2023/01/01 08:24:52;;;;;;;8.23;3.40;;;14.00;48.70;;;;;;5077846;28;20211;-86
2023/01/01 08:27:18;;;;;;;8.60;3.00;;;13.90;47.90;;;;;;5085805;28;20189;-86
2023/01/01 08:29:45;;;;;;;10.03;3.47;;;14.00;46.30;;;;;;5100363;28;20184;-85
2023/01/01 08:32:12;;;;;;;6.90;3.10;;;13.90;46.00;;;;;;5089792;28;20220;-85
2023/01/01 08:34:40;;;;;;;9.47;3.10;;;13.80;47.20;;;;;;5081750;28;20173;-86
2023/01/01 08:37:43;;;;;;;8.87;2.93;;;14.00;45.60;;;;;;5079008;28;20229;-85
2023/01/01 08:40:11;;;;;;;7.60;2.83;;;13.80;43.90;;;;;;5077291;28;20246;-85
2023/01/01 08:42:37;;;;;;;9.67;3.03;;;13.90;44.10;;;;;;5077720;28;20190;-85
2023/01/01 08:45:05;;;;;;;11.20;3.17;;;13.90;44.00;;;;;;5076554;28;20627;-87
2023/01/01 08:47:30;;;;;;;9.50;2.87;;;13.80;45.60;;;;;;5076349;28;20172;-84
2023/01/01 08:49:57;;;;;;;8.30;2.60;;;13.90;45.00;;;;;;5075534;28;20263;-84
2023/01/01 08:52:22;;;;;;;9.47;3.40;;;13.90;41.70;;;;;;5075689;28;20182;-85
2023/01/01 08:54:48;;;;;;;7.67;3.43;;;13.90;40.80;;;;;;5075826;28;20176;-84
2023/01/01 08:57:16;;;;;;;12.90;3.50;;;13.90;42.40;;;;;;5079161;28;20654;-87
2023/01/01 08:59:43;;;;;;;7.50;2.53;;;13.90;42.80;;;;;;5084462;28;20215;-85
2023/01/01 09:02:10;;;;;;;9.20;2.90;;;14.00;41.70;;;;;;5080397;28;20286;-86
2023/01/01 09:04:35;;;;;;;8.90;3.27;;;14.00;41.90;;;;;;5076589;28;20171;-85
2023/01/01 09:07:01;;;;;;;12.13;3.37;;;14.00;39.80;;;;;;5091219;28;20185;-86
2023/01/01 09:09:36;;;;;;;6.37;2.87;;;14.00;41.10;;;;;;5085170;28;20622;-85
2023/01/01 09:12:04;;;;;;;11.17;3.30;;;14.00;41.30;;;;;;5078816;28;20236;-85
2023/01/01 09:14:32;;;;;;;11.40;3.70;;;13.90;40.90;;;;;;5078146;28;20546;-86
2023/01/01 09:16:58;;;;;;;8.43;3.50;;;13.90;42.30;;;;;;5059778;28;20190;-85
2023/01/01 09:19:25;;;;;;;9.90;3.40;;;14.00;39.20;;;;;;5082006;28;20266;-85
2023/01/01 09:21:50;;;;;;;8.03;2.70;;;14.00;39.80;;;;;;5096273;28;20184;-86
2023/01/01 09:24:16;;;;;;;12.97;3.00;;;14.00;39.40;;;;;;5097807;28;20163;-85
2023/01/01 09:26:45;;;;;;;7.47;2.77;;;14.10;37.80;;;;;;5094583;28;20190;-86
2023/01/01 09:29:17;;;;;;;10.73;3.43;;;14.10;37.10;;;;;;5087438;28;20195;-86
2023/01/01 09:31:45;;;;;;;9.37;3.23;;;14.10;37.00;;;;;;5080265;28;20266;-86
2023/01/01 09:34:11;;;;;;;8.80;3.10;;;14.20;34.00;;;;;;5078646;28;20196;-86
2023/01/01 09:36:37;;;;;;;9.90;3.23;;;14.20;31.90;;;;;;5077210;28;20180;-86
2023/01/01 09:39:03;;;;;;;10.10;3.20;;;14.30;32.90;;;;;;5083253;28;20164;-85
2023/01/01 09:41:39;;;;;;;8.63;3.10;;;14.30;31.20;;;;;;5086109;28;20218;-86
2023/01/01 09:44:35;;;;;;;11.20;3.07;;;14.30;29.30;;;;;;5081948;28;20203;-85
2023/01/01 09:47:03;;;;;;;8.03;3.03;;;14.30;30.10;;;;;;5079961;28;20183;-86
2023/01/01 09:49:41;;;;;;;5.80;2.60;;;14.20;30.10;;;;;;5076181;28;20207;-85
2023/01/01 09:52:13;;;;;;;8.73;2.87;;;14.20;29.30;;;;;;5076417;28;20198;-85
2023/01/01 09:55:24;;;;;;;6.80;2.70;;;14.30;26.50;;;;;;5078875;28;20518;-83
2023/01/01 09:57:51;;;;;;;10.07;2.80;;;14.30;23.40;;;;;;5077640;28;20172;-85
2023/01/01 10:00:18;;;;;;;8.40;2.60;;;14.40;22.20;;;;;;5072062;28;20632;-85
2023/01/01 10:02:48;;;;;;;8.60;2.63;;;14.40;23.10;;;;;;5078035;28;20167;-85
2023/01/01 10:05:49;;;;;;;9.87;2.47;;;14.50;18.80;;;;;;5080059;28;20189;-87
2023/01/01 10:08:22;;;;;;;9.17;2.70;;;14.40;18.70;;;;;;5076597;28;20227;-85
2023/01/01 10:11:31;;;;;;;8.13;2.90;;;14.40;17.90;;;;;;5080009;28;20616;-84
2023/01/01 10:14:00;;;;;;;7.40;2.13;;;14.50;16.70;;;;;;5075460;28;20191;-85
2023/01/01 10:16:35;;;;;;;7.73;2.80;;;14.50;16.00;;;;;;5077175;28;20172;-85
2023/01/01 10:19:18;;;;;;;9.23;2.80;;;14.50;15.70;;;;;;5075554;28;20183;-86
2023/01/01 10:21:45;;;;;;;9.47;2.60;;;14.50;14.60;;;;;;5075846;28;20215;-86
2023/01/01 10:24:33;;;;;;;9.53;2.90;;;14.60;14.60;;;;;;5076058;28;20654;-86
2023/01/01 10:27:05;;;;;;;7.03;2.67;;;14.60;13.80;;;;;;5076767;28;20250;-86
2023/01/01 10:29:37;;;;;;;6.73;2.70;;;14.60;12.20;;;;;;5069662;28;20187;-86
2023/01/01 10:32:43;;;;;;;6.80;2.90;;;14.60;11.70;;;;;;5091645;28;20189;-86
2023/01/01 10:35:18;;;;;;;10.33;2.80;;;14.70;9.20;;;;;;5070624;28;20187;-85
2023/01/01 10:37:45;;;;;;;10.50;3.13;;;14.90;7.10;;;;;;5077340;28;20237;-85
2023/01/01 10:40:17;;;;;;;6.90;2.50;;;14.70;9.70;;;;;;5081511;28;20224;-86
2023/01/01 10:42:55;;;;;;;9.07;2.57;;;14.90;8.40;;;;;;5081231;28;20195;-87
2023/01/01 10:45:48;;;;;;;6.50;2.30;;;14.90;9.10;;;;;;5080405;28;20195;-86
2023/01/01 10:48:20;;;;;;;8.67;2.20;;;14.90;4.20;;;;;;5080542;28;20257;-85
2023/01/01 10:51:00;;;;;;;8.83;2.80;;;14.90;4.40;;;;;;5082618;28;20187;-86
2023/01/01 10:53:49;;;;;;;9.23;2.93;;;15.00;2.60;;;;;;5080710;28;20166;-84
2023/01/01 10:56:21;;;;;;;7.17;2.40;;;15.10;1.60;;;;;;5086091;28;20214;-84
2023/01/01 10:58:53;;;;;;;10.67;2.43;;;15.00;2.20;;;;;;5084178;28;20174;-86
2023/01/01 11:01:29;;;;;;;9.90;2.57;;;15.00;1.00;;;;;;5084053;28;20243;-87
2023/01/01 11:04:08;;;;;;;11.53;3.30;;;15.00;1.60;;;;;;5085999;28;20170;-87
2023/01/01 11:06:46;;;;;;;9.80;2.60;;;15.10;1.00;;;;;;5091169;28;20186;-87
2023/01/01 11:09:30;;;;;;;10.83;2.90;;;15.00;1.50;;;;;;5087309;28;20181;-86
2023/01/01 11:15:39;;;;;;;10.47;3.33;;;15.20;1.00;;;;;;5246146;22;20243;-85
2023/01/01 11:18:16;;;;;;;11.50;2.50;;;15.20;1.00;;;;;;4991157;28;20171;-86
2023/01/01 11:20:55;;;;;;;9.33;3.07;;;15.10;1.00;;;;;;4985058;28;20264;-85
2023/01/01 11:23:40;;;;;;;9.00;2.60;;;15.00;4.10;;;;;;4990917;28;20194;-86
2023/01/01 11:26:46;;;;;;;8.37;2.70;;;15.10;2.90;;;;;;4990391;28;20172;-86
2023/01/01 11:29:27;;;;;;;9.20;2.53;;;15.10;2.30;;;;;;4991041;28;20193;-85
2023/01/01 11:32:08;;;;;;;11.47;3.23;;;15.10;2.60;;;;;;4993322;28;20170;-86
2023/01/01 11:34:52;;;;;;;11.77;2.83;;;15.10;1.00;;;;;;4992998;28;20206;-86
2023/01/01 11:37:37;;;;;;;8.43;2.83;;;15.10;1.00;;;;;;4987789;28;20243;-87
2023/01/01 11:40:23;;;;;;;7.77;2.67;;;15.10;1.00;;;;;;4997604;28;20203;-85
2023/01/01 11:43:00;;;;;;;11.00;2.43;;;15.10;1.00;;;;;;5005677;28;20212;-85
2023/01/01 11:45:44;;;;;;;9.17;2.60;;;15.10;1.00;;;;;;5005150;28;20162;-86
2023/01/01 11:48:35;;;;;;;12.27;2.83;;;15.10;1.00;;;;;;5019639;28;20166;-85
2023/01/01 11:51:04;;;;;;;8.73;2.53;;;15.10;1.00;;;;;;5020005;28;20182;-86
2023/01/01 11:53:40;;;;;;;9.10;2.17;;;15.10;1.00;;;;;;5016322;28;20216;-83
2023/01/01 11:56:22;;;;;;;7.67;2.83;;;15.20;1.00;;;;;;5017498;28;20266;-85
2023/01/01 11:59:20;;;;;;;9.30;3.00;;;15.20;1.00;;;;;;5024529;23;20211;-86
2023/01/01 12:02:03;;;;;;;7.87;2.73;;;15.20;1.00;;;;;;4996746;28;20280;-85
2023/01/01 12:04:40;;;;;;;10.63;3.27;;;15.30;1.00;;;;;;4992345;28;20175;-85
2023/01/01 12:07:37;;;;;;;8.17;2.50;;;15.30;1.00;;;;;;4986142;28;20175;-87
2023/01/01 12:10:25;;;;;;;11.73;3.13;;;15.30;1.00;;;;;;4977142;28;20198;-86
2023/01/01 12:13:19;;;;;;;10.40;3.43;;;15.30;1.00;;;;;;4988782;28;20590;-87
2023/01/01 12:16:24;;;;;;;11.93;3.47;;;15.20;1.00;;;;;;4986267;28;20179;-86
2023/01/01 12:19:09;;;;;;;10.17;3.40;;;15.20;1.00;;;;;;4989382;28;20600;-86
2023/01/01 12:21:42;;;;;;;9.50;3.37;;;15.10;1.00;;;;;;4988810;28;20195;-86
2023/01/01 12:24:11;;;;;;;8.23;3.20;;;15.00;1.00;;;;;;4992815;28;20182;-85
2023/01/01 12:29:34;;;;;;;12.43;3.37;;;14.90;1.00;;;;;;5015479;23;20253;-86
2023/01/01 12:32:35;;;;;;;9.10;3.27;;;14.90;1.00;;;;;;5013143;28;20182;-85
2023/01/01 12:35:39;;;;;;;11.93;3.17;;;15.00;1.00;;;;;;5012732;28;20186;-87
2023/01/01 12:38:43;;;;;;;9.57;3.30;;;15.00;1.00;;;;;;5003444;28;20159;-85
2023/01/01 12:41:36;;;;;;;8.67;3.20;;;15.00;1.00;;;;;;5003793;28;20221;-87
2023/01/01 12:44:38;;;;;;;11.90;3.13;;;14.90;5.20;;;;;;5008133;28;20227;-87
2023/01/01 12:47:10;;;;;;;8.00;2.93;;;14.80;8.30;;;;;;5033765;28;20165;-84
2023/01/01 12:49:59;;;;;;;11.10;3.10;;;14.90;9.20;;;;;;5007707;28;20173;-85
2023/01/01 12:52:31;;;;;;;13.33;2.93;;;14.80;7.60;;;;;;5012140;28;20185;-85
2023/01/01 12:55:24;;;;;;;8.80;3.37;;;14.90;9.60;;;;;;5010030;28;20260;-84
2023/01/01 12:58:02;;;;;;;9.57;3.17;;;14.90;11.00;;;;;;5007906;28;20649;-87
2023/01/01 13:00:40;;;;;;;9.20;2.63;;;14.90;14.00;;;;;;5010033;28;20214;-86
2023/01/01 13:03:32;;;;;;;9.10;3.20;;;14.80;17.00;;;;;;5010879;28;20182;-87
2023/01/01 13:06:00;;;;;;;11.97;3.20;;;14.80;18.20;;;;;;4990125;28;20198;-85
2023/01/01 13:08:34;;;;;;;10.00;3.33;;;14.80;18.10;;;;;;5003478;28;20250;-86
2023/01/01 13:11:44;;;;;;;10.47;3.27;;;14.80;18.70;;;;;;5015982;28;20160;-87
2023/01/01 13:14:11;;;;;;;10.87;3.53;;;14.70;18.30;;;;;;4999986;28;20174;-86
2023/01/01 13:16:40;;;;;;;11.17;3.47;;;14.70;21.10;;;;;;4999291;28;20178;-86
2023/01/01 13:19:06;;;;;;;8.03;3.00;;;14.70;22.40;;;;;;4998748;28;20178;-86
2023/01/01 13:21:32;;;;;;;7.57;3.10;;;14.60;22.90;;;;;;5002788;28;20213;-87
2023/01/01 13:24:19;;;;;;;10.87;3.40;;;14.60;23.60;;;;;;5001741;28;20174;-86
2023/01/01 13:26:47;;;;;;;8.80;3.40;;;14.60;25.70;;;;;;4998057;28;20265;-85
2023/01/01 13:29:13;;;;;;;11.77;3.20;;;14.60;25.70;;;;;;4997992;28;20200;-86
2023/01/01 13:31:39;;;;;;;8.27;2.93;;;14.50;26.10;;;;;;4997877;28;20272;-85
2023/01/01 13:34:29;;;;;;;10.30;3.03;;;14.50;26.70;;;;;;5010589;28;20204;-87
2023/01/01 13:37:13;;;;;;;10.10;3.20;;;14.50;27.20;;;;;;5013263;28;20232;-86
2023/01/01 13:40:23;;;;;;;9.13;3.20;;;14.40;28.70;;;;;;5018796;28;20278;-88